Julio de Castilhos, Brazil
Current Conditions -  °F | °C
As of 12:00 PM on Tuesday 27 Jan 2015 (Local Time) from SBSM Reporting Station
Broken Clouds Broken Clouds  
Wind Chill: 88°   Ceiling: 3000
Heat Index: 100°   Visibility: 6mi
Dew Point: 77°   Wind: 2mph
Humidity: 70%   Direction: NA
Pressure: 29.85"   Gusts: NA
Location:  29.23°S, 53.68°W
Report Text: SBSM 271400Z VRB02KT 9999 BKN030 FEW035TCU 31/25 Q1011
Loading
Personal Weather Stations






























Interactive Weather Map New forecast layout! Learn more

10-Day Weather Forecast

Advertisements
Track Severe Weather on mobile